EmailTwitter


Surface observations / Canada / CYYZ (71624)

Regions: Quebec | Canada | USA | Europe | France | UK | Elsewhere
Station
Display
Info & Location for CYYZ (71624) | Help decoding METAR

Weather Conditions observed on 2018/02/23 at 02:00 UTC at TORONTO A, ON (CYYZ)

Sky conditions: partly cloudy.

Temperature: -1.0 Celsius.

Dewpoint: -6.0 Celsius.

Relative Humidity: 69%

Windchill Factor: -4.

Winds: East at 9 km/h or 5 knots.

Mean Sea level Pressure: 103.85 kilopascals.

Altimeter Setting (QNH): 103.76 kilopascals or 30.64 inches of mercury.

Horizontal visibility: 15.00 statute miles or 24.00 kilometers.

Height of the Ceiling: 7315 metres ( 24000 feet ).

Coded METAR:

CYYZ 230200Z 09005KT 15SM FEW025 BKN240 M01/M06 A3064 RMK SC1CI6 SC TR SLP385=